Hikarimaru No.17 — JD2956 — position and weather

sailwx.info

Track history (hours):
 
Tides and Currents Weather Stations Pressure Air Temp Water Temp Dewpoint Dewpoint Depression Visibility Wind Speed Wind Dir Waves Ship Positions

Hikarimaru No.17

Last reported at 2015-Apr-22 01:24 UTC. Time now 2015-Apr-22 01:45 UTC.
Position N 34°09' E 135°11'.

Length 105 m; draft 5.5 m.

Type: Tanker. MMSI: 431000984.

Date/timePositionNaut miles runAvg speedWind from/ knotsBaromVisibWave heightAir tempDewpointWater temp
2015-Apr-22 01:24N 34°09' E 135°11'0 0.0
2015-Apr-22 00:30N 34°09' E 135°11'0 0.0
2015-Apr-21 23:33N 34°09' E 135°11'2 2.1
2015-Apr-21 22:33N 34°09' E 135°09'0 0.0
2015-Apr-21 21:33N 34°09' E 135°09'0 0.0
2015-Apr-21 20:33N 34°09' E 135°09'0 0.0
2015-Apr-21 19:33N 34°09' E 135°09'0 0.0
2015-Apr-21 18:33N 34°09' E 135°09'0 0.1
2015-Apr-21 17:33N 34°09' E 135°09'0 0.1
2015-Apr-21 16:33N 34°09' E 135°09'0 0.1
2015-Apr-21 15:33N 34°09' E 135°09'0 0.0
2015-Apr-21 10:33N 34°09' E 135°09'0 0.1
2015-Apr-21 09:29N 34°09' E 135°09'0 0.0
2015-Apr-21 08:32N 34°09' E 135°09'0 0.0
2015-Apr-21 07:29N 34°09' E 135°09'0 0.0
2015-Apr-21 06:32N 34°09' E 135°09'0 0.0
2015-Apr-21 05:32N 34°09' E 135°09'0 0.0
2015-Apr-21 04:32N 34°09' E 135°09'0 0.1
2015-Apr-21 03:32N 34°09' E 135°09'2 1.8
2015-Apr-21 02:33N 34°09' E 135°11'0 0.3
2015-Apr-21 01:33N 34°09' E 135°11'0 0.0
2015-Apr-21 00:33N 34°09' E 135°11'0 0.0
2015-Apr-20 23:33N 34°09' E 135°11'2 2.1
2015-Apr-20 22:31N 34°09' E 135°09'0 0.0
2015-Apr-20 21:31N 34°09' E 135°09'0 0.0
2015-Apr-20 20:28N 34°09' E 135°09'0 0.0
2015-Apr-20 19:31N 34°09' E 135°09'0 0.0
2015-Apr-20 18:31N 34°09' E 135°09'0 0.0
2015-Apr-20 17:22N 34°09' E 135°09'0 0.0
2015-Apr-20 16:31N 34°09' E 135°09'0 0.1
2015-Apr-20 15:31N 34°09' E 135°09'0 0.1
2015-Apr-20 14:31N 34°09' E 135°09'0 0.0
2015-Apr-20 13:28N 34°09' E 135°09'0 0.1
2015-Apr-20 12:31N 34°09' E 135°09'0 0.0
2015-Apr-20 11:31N 34°09' E 135°09'0 0.0
2015-Apr-20 10:31N 34°09' E 135°09'2 2.6
2015-Apr-20 09:33N 34°07' E 135°07'0 0.0
2015-Apr-20 08:27N 34°07' E 135°07'0 0.0
2015-Apr-20 07:33N 34°07' E 135°07'0 0.0
2015-Apr-20 06:33N 34°07' E 135°07'2 2.2
2015-Apr-20 05:31N 34°09' E 135°08'0 0.0
2015-Apr-20 04:31N 34°09' E 135°08'0 0.0
2015-Apr-20 03:31N 34°09' E 135°08'2 2.3
2015-Apr-20 02:33N 34°09' E 135°11'0 0.1
2015-Apr-20 01:34N 34°09' E 135°11'0 0.0
2015-Apr-20 00:33N 34°09' E 135°11'0 0.0
2015-Apr-19 23:33N 34°09' E 135°11'2 2.0
2015-Apr-19 22:31N 34°10' E 135°09'0 0.0
2015-Apr-19 21:31N 34°10' E 135°09'0 0.0
2015-Apr-19 20:31N 34°10' E 135°09'0 0.0
2015-Apr-19 19:31N 34°10' E 135°09'0 0.0
2015-Apr-19 18:31N 34°10' E 135°09'0 0.0
2015-Apr-19 17:28N 34°10' E 135°09'0 0.1
2015-Apr-19 16:31N 34°10' E 135°09'0 0.0
2015-Apr-19 15:28N 34°10' E 135°09'0 0.0
2015-Apr-19 14:31N 34°10' E 135°09'0 0.0
2015-Apr-19 13:31N 34°10' E 135°09'0 0.0
2015-Apr-19 12:31N 34°10' E 135°09'0 0.0
2015-Apr-19 11:25N 34°10' E 135°09'0 0.1
2015-Apr-19 10:25N 34°10' E 135°09'0 0.0
2015-Apr-19 09:31N 34°10' E 135°09'0 0.0
2015-Apr-19 08:31N 34°10' E 135°09'4 4.3
2015-Apr-19 07:33N 34°12' E 135°05'1010.3
2015-Apr-19 06:33N 34°21' E 134°60'1313.1
2015-Apr-19 05:33N 34°29' E 135°13'1110.5
2015-Apr-19 04:33N 34°33' E 135°25'0 0.4
2015-Apr-19 03:32N 34°33' E 135°25'0 0.0
2015-Apr-19 02:33N 34°33' E 135°25'0 0.0
2015-Apr-19 01:33N 34°33' E 135°25'0 0.0
2015-Apr-19 00:31N 34°33' E 135°25'2 1.8
2015-Apr-18 23:33N 34°33' E 135°23'3 2.7
2015-Apr-18 22:30N 34°32' E 135°20'0 0.0
2015-Apr-18 20:30N 34°32' E 135°20'0 0.0
2015-Apr-18 19:24N 34°32' E 135°20'0 0.1
2015-Apr-18 18:30N 34°32' E 135°20'0 0.0
2015-Apr-18 17:30N 34°32' E 135°20'0 0.1
2015-Apr-18 16:18N 34°32' E 135°20'0 0.0
2015-Apr-18 15:18N 34°32' E 135°20'0 0.0
2015-Apr-18 14:24N 34°32' E 135°20'0 0.1
2015-Apr-18 13:30N 34°32' E 135°20'0 0.0
2015-Apr-18 12:30N 34°32' E 135°20'0 0.0
2015-Apr-18 11:30N 34°32' E 135°20'0 0.0
2015-Apr-18 10:30N 34°32' E 135°20'0 0.0
2015-Apr-18 09:24N 34°32' E 135°20'0 0.2
2015-Apr-18 07:33N 34°32' E 135°20'1313.1
2015-Apr-18 06:33N 34°24' E 135°07'1010.2
2015-Apr-18 05:33N 34°15' E 135°02'6 6.1
2015-Apr-18 04:32N 34°12' E 135°09'0 0.0
2015-Apr-18 03:27N 34°12' E 135°09'0 0.0
2015-Apr-18 02:32N 34°12' E 135°09'0 0.0
2015-Apr-18 01:32N 34°12' E 135°09'0 0.0
2015-Apr-18 00:32N 34°12' E 135°09'0 0.0
2015-Apr-17 23:32N 34°12' E 135°09'0 0.0
2015-Apr-17 22:29N 34°12' E 135°09'0 0.0
2015-Apr-17 21:32N 34°12' E 135°09'0 0.0
2015-Apr-17 20:32N 34°12' E 135°09'0 0.0
2015-Apr-17 19:32N 34°12' E 135°09'0 0.0
2015-Apr-17 18:32N 34°12' E 135°09'0 0.0
2015-Apr-17 17:32N 34°12' E 135°09'0 0.0
2015-Apr-17 16:32N 34°12' E 135°09'0 0.0
2015-Apr-17 15:32N 34°12' E 135°09'0 0.0
2015-Apr-17 14:32N 34°12' E 135°09'0 0.0
2015-Apr-17 13:32N 34°12' E 135°09'0 0.0
2015-Apr-17 12:32N 34°12' E 135°09'0 0.0
2015-Apr-17 11:32N 34°12' E 135°09'0 0.0
2015-Apr-17 10:32N 34°12' E 135°09'0 0.0
2015-Apr-17 09:32N 34°12' E 135°09'0 0.0
2015-Apr-17 08:32N 34°12' E 135°09'0 0.0
2015-Apr-17 07:32N 34°12' E 135°09'0 0.0
2015-Apr-17 06:32N 34°12' E 135°09'0 0.0
2015-Apr-17 05:33N 34°12' E 135°09'3 2.7
2015-Apr-17 04:28N 34°09' E 135°09'0 0.0
2015-Apr-17 03:31N 34°09' E 135°09'2 1.9
2015-Apr-17 02:33N 34°09' E 135°11'0 0.4
2015-Apr-17 01:33N 34°09' E 135°11'0 0.0
2015-Apr-17 00:33N 34°09' E 135°11'0 0.0
2015-Apr-16 23:33N 34°09' E 135°11'2 1.9
2015-Apr-16 22:33N 34°09' E 135°09'0 0.0
2015-Apr-16 21:33N 34°09' E 135°09'0 0.1
2015-Apr-16 20:33N 34°09' E 135°09'0 0.1
2015-Apr-16 19:33N 34°09' E 135°09'0 0.0
2015-Apr-16 18:30N 34°09' E 135°09'0 0.0
2015-Apr-16 17:33N 34°09' E 135°09'0 0.0
2015-Apr-16 16:33N 34°09' E 135°09'0 0.0
2015-Apr-16 15:30N 34°09' E 135°09'0 0.0
2015-Apr-16 14:30N 34°09' E 135°09'0 0.0
2015-Apr-16 13:30N 34°09' E 135°09'0 0.0
2015-Apr-16 12:30N 34°09' E 135°09'0 0.0
2015-Apr-16 11:30N 34°09' E 135°09'0 0.1
2015-Apr-16 10:33N 34°09' E 135°09'0 0.1
2015-Apr-16 09:33N 34°09' E 135°09'0 0.0
2015-Apr-16 08:33N 34°09' E 135°09'3 2.8
2015-Apr-16 07:34N 34°11' E 135°06'1110.6
2015-Apr-16 06:33N 34°20' E 134°60'1312.5
2015-Apr-16 05:33N 34°28' E 135°11'1312.2
2015-Apr-16 04:32N 34°33' E 135°25'1 0.3
2015-Apr-16 01:32N 34°33' E 135°25'0 0.0
2015-Apr-16 00:03N 34°33' E 135°25'2 3.6
2015-Apr-15 23:33N 34°33' E 135°23'3 2.3
2015-Apr-15 22:23N 34°32' E 135°20'0 0.0
2015-Apr-15 20:29N 34°32' E 135°20'0 0.0
2015-Apr-15 19:17N 34°32' E 135°20'0 0.0
2015-Apr-15 18:17N 34°32' E 135°20'0 0.0
2015-Apr-15 17:23N 34°32' E 135°20'0 0.0
2015-Apr-15 16:23N 34°32' E 135°20'0 0.0
2015-Apr-15 15:17N 34°32' E 135°20'0 0.0
2015-Apr-15 13:05N 34°32' E 135°20'0 0.0
2015-Apr-15 12:23N 34°32' E 135°20'0 0.0
2015-Apr-15 11:29N 34°32' E 135°20'0 0.0
2015-Apr-15 10:29N 34°32' E 135°20'0 0.0
2015-Apr-15 08:23N 34°32' E 135°20'0 0.0
2015-Apr-15 07:17N 34°32' E 135°20'6 8.3
2015-Apr-15 06:33N 34°29' E 135°14'1313.1
2015-Apr-15 05:33N 34°20' E 135°02'1111.0
2015-Apr-15 04:33N 34°09' E 134°60'6 0.9
2015-Apr-14 21:34N 34°03' E 135°03'8 7.2
2015-Apr-14 20:30N 34°09' E 135°08'0 0.0
2015-Apr-14 19:33N 34°09' E 135°08'0 0.0
2015-Apr-14 18:33N 34°09' E 135°08'0 0.0
2015-Apr-14 17:33N 34°09' E 135°08'0 0.0
2015-Apr-14 16:33N 34°09' E 135°08'0 0.0
2015-Apr-14 15:33N 34°09' E 135°08'0 0.0
2015-Apr-14 14:30N 34°09' E 135°08'0 0.1
2015-Apr-14 13:33N 34°09' E 135°08'0 0.1
2015-Apr-14 12:33N 34°09' E 135°08'0 0.0
2015-Apr-14 11:33N 34°09' E 135°08'0 0.0
2015-Apr-14 10:33N 34°09' E 135°08'0 0.0
2015-Apr-14 09:33N 34°09' E 135°08'0 0.0
2015-Apr-14 08:33N 34°09' E 135°08'0 0.1
2015-Apr-14 07:33N 34°09' E 135°08'1010.4
2015-Apr-14 06:33N 34°16' E 134°59'1110.9
2015-Apr-14 05:33N 34°25' E 135°06'1313.0
2015-Apr-14 04:32N 34°32' E 135°19'4 4.4
2015-Apr-14 03:33N 34°33' E 135°25'0 0.0
2015-Apr-14 02:31N 34°33' E 135°25'0 0.0
2015-Apr-14 01:29N 34°33' E 135°25'0 0.0
2015-Apr-14 00:12N 34°33' E 135°25'1 1.1
2015-Apr-13 23:32N 34°33' E 135°25'5 3.6
2015-Apr-13 22:13N 34°32' E 135°19'0 0.0
2015-Apr-13 21:13N 34°32' E 135°19'0 0.0
2015-Apr-13 20:31N 34°32' E 135°19'0 0.0
2015-Apr-13 19:25N 34°32' E 135°19'0 0.0
2015-Apr-13 18:31N 34°32' E 135°19'0 0.0
2015-Apr-13 17:19N 34°32' E 135°19'0 0.0
2015-Apr-13 16:25N 34°32' E 135°19'0 0.0
2015-Apr-13 15:19N 34°32' E 135°19'0 0.1
2015-Apr-13 14:31N 34°32' E 135°19'0 0.0
2015-Apr-13 13:31N 34°32' E 135°19'0 0.0
2015-Apr-13 12:31N 34°32' E 135°19'0 0.0
2015-Apr-13 11:19N 34°32' E 135°19'0 0.0
2015-Apr-13 10:31N 34°32' E 135°19'0 0.0
2015-Apr-13 09:25N 34°32' E 135°19'0 0.0
2015-Apr-13 08:13N 34°32' E 135°19'0 0.0
2015-Apr-13 07:25N 34°32' E 135°19'0 0.0
2015-Apr-13 06:25N 34°32' E 135°19'7 7.7
2015-Apr-13 05:33N 34°29' E 135°12'1312.3
2015-Apr-13 04:31N 34°20' E 135°01'1010.2
2015-Apr-13 03:33N 34°11' E 135°06'4 4.5
2015-Apr-13 02:33N 34°09' E 135°11'0 0.4
2015-Apr-13 01:33N 34°09' E 135°11'0 0.0
2015-Apr-13 00:28N 34°09' E 135°11'0 0.0
2015-Apr-12 23:33N 34°09' E 135°11'2 1.8
2015-Apr-12 22:33N 34°09' E 135°09'0 0.0
2015-Apr-12 21:33N 34°09' E 135°09'0 0.0
2015-Apr-12 20:33N 34°09' E 135°09'0 0.0
2015-Apr-12 19:33N 34°09' E 135°09'0 0.1
2015-Apr-12 18:33N 34°09' E 135°09'0 0.1
2015-Apr-12 17:33N 34°09' E 135°09'0 0.0
2015-Apr-12 16:30N 34°09' E 135°09'0 0.1
2015-Apr-12 15:33N 34°09' E 135°09'0 0.1
2015-Apr-12 14:33N 34°09' E 135°09'0 0.1
2015-Apr-12 13:33N 34°09' E 135°09'0 0.1
2015-Apr-12 12:33N 34°09' E 135°09'0 0.0
2015-Apr-12 11:33N 34°09' E 135°09'0 0.0
2015-Apr-12 10:33N 34°09' E 135°09'0 0.0
2015-Apr-12 09:33N 34°09' E 135°09'0 0.0
2015-Apr-12 08:33N 34°09' E 135°09'0 0.0
2015-Apr-12 07:33N 34°09' E 135°09'5 5.5
2015-Apr-12 06:33N 34°12' E 135°04'1010.3
2015-Apr-12 05:32N 34°22' E 135°01'1312.7
2015-Apr-12 04:33N 34°30' E 135°13'10 9.7
2015-Apr-12 03:33N 34°33' E 135°25'  
Track history (hours):
 
Tides and Currents Weather Stations Pressure Air Temp Water Temp Dewpoint Dewpoint Depression Visibility Wind Speed Wind Dir Waves Ship Positions

Hikarimaru No.17

Last reported at 2015-Apr-22 01:24 UTC. Time now 2015-Apr-22 01:45 UTC.
Position N 34°09' E 135°11'.

Length 105 m; draft 5.5 m.

Type: Tanker. MMSI: 431000984.

Date/timePositionNaut miles runAvg speedWind from/ knotsBaromVisibWave heightAir tempDewpointWater temp
2015-Apr-22 01:24N 34°09' E 135°11'0 0.0
2015-Apr-22 00:30N 34°09' E 135°11'0 0.0
2015-Apr-21 23:33N 34°09' E 135°11'2 2.1
2015-Apr-21 22:33N 34°09' E 135°09'0 0.0
2015-Apr-21 21:33N 34°09' E 135°09'0 0.0
2015-Apr-21 20:33N 34°09' E 135°09'0 0.0
2015-Apr-21 19:33N 34°09' E 135°09'0 0.0
2015-Apr-21 18:33N 34°09' E 135°09'0 0.1
2015-Apr-21 17:33N 34°09' E 135°09'0 0.1
2015-Apr-21 16:33N 34°09' E 135°09'0 0.1
2015-Apr-21 15:33N 34°09' E 135°09'0 0.0
2015-Apr-21 10:33N 34°09' E 135°09'0 0.1
2015-Apr-21 09:29N 34°09' E 135°09'0 0.0
2015-Apr-21 08:32N 34°09' E 135°09'0 0.0
2015-Apr-21 07:29N 34°09' E 135°09'0 0.0
2015-Apr-21 06:32N 34°09' E 135°09'0 0.0
2015-Apr-21 05:32N 34°09' E 135°09'0 0.0
2015-Apr-21 04:32N 34°09' E 135°09'0 0.1
2015-Apr-21 03:32N 34°09' E 135°09'2 1.8
2015-Apr-21 02:33N 34°09' E 135°11'0 0.3
2015-Apr-21 01:33N 34°09' E 135°11'0 0.0
2015-Apr-21 00:33N 34°09' E 135°11'0 0.0
2015-Apr-20 23:33N 34°09' E 135°11'2 2.1
2015-Apr-20 22:31N 34°09' E 135°09'0 0.0
2015-Apr-20 21:31N 34°09' E 135°09'0 0.0
2015-Apr-20 20:28N 34°09' E 135°09'0 0.0
2015-Apr-20 19:31N 34°09' E 135°09'0 0.0
2015-Apr-20 18:31N 34°09' E 135°09'0 0.0
2015-Apr-20 17:22N 34°09' E 135°09'0 0.0
2015-Apr-20 16:31N 34°09' E 135°09'0 0.1
2015-Apr-20 15:31N 34°09' E 135°09'0 0.1
2015-Apr-20 14:31N 34°09' E 135°09'0 0.0
2015-Apr-20 13:28N 34°09' E 135°09'0 0.1
2015-Apr-20 12:31N 34°09' E 135°09'0 0.0
2015-Apr-20 11:31N 34°09' E 135°09'0 0.0
2015-Apr-20 10:31N 34°09' E 135°09'2 2.6
2015-Apr-20 09:33N 34°07' E 135°07'0 0.0
2015-Apr-20 08:27N 34°07' E 135°07'0 0.0
2015-Apr-20 07:33N 34°07' E 135°07'0 0.0
2015-Apr-20 06:33N 34°07' E 135°07'2 2.2
2015-Apr-20 05:31N 34°09' E 135°08'0 0.0
2015-Apr-20 04:31N 34°09' E 135°08'0 0.0
2015-Apr-20 03:31N 34°09' E 135°08'2 2.3
2015-Apr-20 02:33N 34°09' E 135°11'0 0.1
2015-Apr-20 01:34N 34°09' E 135°11'0 0.0
2015-Apr-20 00:33N 34°09' E 135°11'0 0.0
2015-Apr-19 23:33N 34°09' E 135°11'2 2.0
2015-Apr-19 22:31N 34°10' E 135°09'0 0.0
2015-Apr-19 21:31N 34°10' E 135°09'0 0.0
2015-Apr-19 20:31N 34°10' E 135°09'0 0.0
2015-Apr-19 19:31N 34°10' E 135°09'0 0.0
2015-Apr-19 18:31N 34°10' E 135°09'0 0.0
2015-Apr-19 17:28N 34°10' E 135°09'0 0.1
2015-Apr-19 16:31N 34°10' E 135°09'0 0.0
2015-Apr-19 15:28N 34°10' E 135°09'0 0.0
2015-Apr-19 14:31N 34°10' E 135°09'0 0.0
2015-Apr-19 13:31N 34°10' E 135°09'0 0.0
2015-Apr-19 12:31N 34°10' E 135°09'0 0.0
2015-Apr-19 11:25N 34°10' E 135°09'0 0.1
2015-Apr-19 10:25N 34°10' E 135°09'0 0.0
2015-Apr-19 09:31N 34°10' E 135°09'0 0.0
2015-Apr-19 08:31N 34°10' E 135°09'4 4.3
2015-Apr-19 07:33N 34°12' E 135°05'1010.3
2015-Apr-19 06:33N 34°21' E 134°60'1313.1
2015-Apr-19 05:33N 34°29' E 135°13'1110.5
2015-Apr-19 04:33N 34°33' E 135°25'0 0.4
2015-Apr-19 03:32N 34°33' E 135°25'0 0.0
2015-Apr-19 02:33N 34°33' E 135°25'0 0.0
2015-Apr-19 01:33N 34°33' E 135°25'0 0.0
2015-Apr-19 00:31N 34°33' E 135°25'2 1.8
2015-Apr-18 23:33N 34°33' E 135°23'3 2.7
2015-Apr-18 22:30N 34°32' E 135°20'0 0.0
2015-Apr-18 20:30N 34°32' E 135°20'0 0.0
2015-Apr-18 19:24N 34°32' E 135°20'0 0.1
2015-Apr-18 18:30N 34°32' E 135°20'0 0.0
2015-Apr-18 17:30N 34°32' E 135°20'0 0.1
2015-Apr-18 16:18N 34°32' E 135°20'0 0.0
2015-Apr-18 15:18N 34°32' E 135°20'0 0.0
2015-Apr-18 14:24N 34°32' E 135°20'0 0.1
2015-Apr-18 13:30N 34°32' E 135°20'0 0.0
2015-Apr-18 12:30N 34°32' E 135°20'0 0.0
2015-Apr-18 11:30N 34°32' E 135°20'0 0.0
2015-Apr-18 10:30N 34°32' E 135°20'0 0.0
2015-Apr-18 09:24N 34°32' E 135°20'0 0.2
2015-Apr-18 07:33N 34°32' E 135°20'1313.1
2015-Apr-18 06:33N 34°24' E 135°07'1010.2
2015-Apr-18 05:33N 34°15' E 135°02'6 6.1
2015-Apr-18 04:32N 34°12' E 135°09'0 0.0
2015-Apr-18 03:27N 34°12' E 135°09'0 0.0
2015-Apr-18 02:32N 34°12' E 135°09'0 0.0
2015-Apr-18 01:32N 34°12' E 135°09'0 0.0
2015-Apr-18 00:32N 34°12' E 135°09'0 0.0
2015-Apr-17 23:32N 34°12' E 135°09'0 0.0
2015-Apr-17 22:29N 34°12' E 135°09'0 0.0
2015-Apr-17 21:32N 34°12' E 135°09'0 0.0
2015-Apr-17 20:32N 34°12' E 135°09'0 0.0
2015-Apr-17 19:32N 34°12' E 135°09'0 0.0
2015-Apr-17 18:32N 34°12' E 135°09'0 0.0
2015-Apr-17 17:32N 34°12' E 135°09'0 0.0
2015-Apr-17 16:32N 34°12' E 135°09'0 0.0
2015-Apr-17 15:32N 34°12' E 135°09'0 0.0
2015-Apr-17 14:32N 34°12' E 135°09'0 0.0
2015-Apr-17 13:32N 34°12' E 135°09'0 0.0
2015-Apr-17 12:32N 34°12' E 135°09'0 0.0
2015-Apr-17 11:32N 34°12' E 135°09'0 0.0
2015-Apr-17 10:32N 34°12' E 135°09'0 0.0
2015-Apr-17 09:32N 34°12' E 135°09'0 0.0
2015-Apr-17 08:32N 34°12' E 135°09'0 0.0
2015-Apr-17 07:32N 34°12' E 135°09'0 0.0
2015-Apr-17 06:32N 34°12' E 135°09'0 0.0
2015-Apr-17 05:33N 34°12' E 135°09'3 2.7
2015-Apr-17 04:28N 34°09' E 135°09'0 0.0
2015-Apr-17 03:31N 34°09' E 135°09'2 1.9
2015-Apr-17 02:33N 34°09' E 135°11'0 0.4
2015-Apr-17 01:33N 34°09' E 135°11'0 0.0
2015-Apr-17 00:33N 34°09' E 135°11'0 0.0
2015-Apr-16 23:33N 34°09' E 135°11'2 1.9
2015-Apr-16 22:33N 34°09' E 135°09'0 0.0
2015-Apr-16 21:33N 34°09' E 135°09'0 0.1
2015-Apr-16 20:33N 34°09' E 135°09'0 0.1
2015-Apr-16 19:33N 34°09' E 135°09'0 0.0
2015-Apr-16 18:30N 34°09' E 135°09'0 0.0
2015-Apr-16 17:33N 34°09' E 135°09'0 0.0
2015-Apr-16 16:33N 34°09' E 135°09'0 0.0
2015-Apr-16 15:30N 34°09' E 135°09'0 0.0
2015-Apr-16 14:30N 34°09' E 135°09'0 0.0
2015-Apr-16 13:30N 34°09' E 135°09'0 0.0
2015-Apr-16 12:30N 34°09' E 135°09'0 0.0
2015-Apr-16 11:30N 34°09' E 135°09'0 0.1
2015-Apr-16 10:33N 34°09' E 135°09'0 0.1
2015-Apr-16 09:33N 34°09' E 135°09'0 0.0
2015-Apr-16 08:33N 34°09' E 135°09'3 2.8
2015-Apr-16 07:34N 34°11' E 135°06'1110.6
2015-Apr-16 06:33N 34°20' E 134°60'1312.5
2015-Apr-16 05:33N 34°28' E 135°11'1312.2
2015-Apr-16 04:32N 34°33' E 135°25'1 0.3
2015-Apr-16 01:32N 34°33' E 135°25'0 0.0
2015-Apr-16 00:03N 34°33' E 135°25'2 3.6
2015-Apr-15 23:33N 34°33' E 135°23'3 2.3
2015-Apr-15 22:23N 34°32' E 135°20'0 0.0
2015-Apr-15 20:29N 34°32' E 135°20'0 0.0
2015-Apr-15 19:17N 34°32' E 135°20'0 0.0
2015-Apr-15 18:17N 34°32' E 135°20'0 0.0
2015-Apr-15 17:23N 34°32' E 135°20'0 0.0
2015-Apr-15 16:23N 34°32' E 135°20'0 0.0
2015-Apr-15 15:17N 34°32' E 135°20'0 0.0
2015-Apr-15 13:05N 34°32' E 135°20'0 0.0
2015-Apr-15 12:23N 34°32' E 135°20'0 0.0
2015-Apr-15 11:29N 34°32' E 135°20'0 0.0
2015-Apr-15 10:29N 34°32' E 135°20'0 0.0
2015-Apr-15 08:23N 34°32' E 135°20'0 0.0
2015-Apr-15 07:17N 34°32' E 135°20'6 8.3
2015-Apr-15 06:33N 34°29' E 135°14'1313.1
2015-Apr-15 05:33N 34°20' E 135°02'1111.0
2015-Apr-15 04:33N 34°09' E 134°60'6 0.9
2015-Apr-14 21:34N 34°03' E 135°03'8 7.2
2015-Apr-14 20:30N 34°09' E 135°08'0 0.0
2015-Apr-14 19:33N 34°09' E 135°08'0 0.0
2015-Apr-14 18:33N 34°09' E 135°08'0 0.0
2015-Apr-14 17:33N 34°09' E 135°08'0 0.0
2015-Apr-14 16:33N 34°09' E 135°08'0 0.0
2015-Apr-14 15:33N 34°09' E 135°08'0 0.0
2015-Apr-14 14:30N 34°09' E 135°08'0 0.1
2015-Apr-14 13:33N 34°09' E 135°08'0 0.1
2015-Apr-14 12:33N 34°09' E 135°08'0 0.0
2015-Apr-14 11:33N 34°09' E 135°08'0 0.0
2015-Apr-14 10:33N 34°09' E 135°08'0 0.0
2015-Apr-14 09:33N 34°09' E 135°08'0 0.0
2015-Apr-14 08:33N 34°09' E 135°08'0 0.1
2015-Apr-14 07:33N 34°09' E 135°08'1010.4
2015-Apr-14 06:33N 34°16' E 134°59'1110.9
2015-Apr-14 05:33N 34°25' E 135°06'1313.0
2015-Apr-14 04:32N 34°32' E 135°19'4 4.4
2015-Apr-14 03:33N 34°33' E 135°25'0 0.0
2015-Apr-14 02:31N 34°33' E 135°25'0 0.0
2015-Apr-14 01:29N 34°33' E 135°25'0 0.0
2015-Apr-14 00:12N 34°33' E 135°25'1 1.1
2015-Apr-13 23:32N 34°33' E 135°25'5 3.6
2015-Apr-13 22:13N 34°32' E 135°19'0 0.0
2015-Apr-13 21:13N 34°32' E 135°19'0 0.0
2015-Apr-13 20:31N 34°32' E 135°19'0 0.0
2015-Apr-13 19:25N 34°32' E 135°19'0 0.0
2015-Apr-13 18:31N 34°32' E 135°19'0 0.0
2015-Apr-13 17:19N 34°32' E 135°19'0 0.0
2015-Apr-13 16:25N 34°32' E 135°19'0 0.0
2015-Apr-13 15:19N 34°32' E 135°19'0 0.1
2015-Apr-13 14:31N 34°32' E 135°19'0 0.0
2015-Apr-13 13:31N 34°32' E 135°19'0 0.0
2015-Apr-13 12:31N 34°32' E 135°19'0 0.0
2015-Apr-13 11:19N 34°32' E 135°19'0 0.0
2015-Apr-13 10:31N 34°32' E 135°19'0 0.0
2015-Apr-13 09:25N 34°32' E 135°19'0 0.0
2015-Apr-13 08:13N 34°32' E 135°19'0 0.0
2015-Apr-13 07:25N 34°32' E 135°19'0 0.0
2015-Apr-13 06:25N 34°32' E 135°19'7 7.7
2015-Apr-13 05:33N 34°29' E 135°12'1312.3
2015-Apr-13 04:31N 34°20' E 135°01'1010.2
2015-Apr-13 03:33N 34°11' E 135°06'4 4.5
2015-Apr-13 02:33N 34°09' E 135°11'0 0.4
2015-Apr-13 01:33N 34°09' E 135°11'0 0.0
2015-Apr-13 00:28N 34°09' E 135°11'0 0.0
2015-Apr-12 23:33N 34°09' E 135°11'2 1.8
2015-Apr-12 22:33N 34°09' E 135°09'0 0.0
2015-Apr-12 21:33N 34°09' E 135°09'0 0.0
2015-Apr-12 20:33N 34°09' E 135°09'0 0.0
2015-Apr-12 19:33N 34°09' E 135°09'0 0.1
2015-Apr-12 18:33N 34°09' E 135°09'0 0.1
2015-Apr-12 17:33N 34°09' E 135°09'0 0.0
2015-Apr-12 16:30N 34°09' E 135°09'0 0.1
2015-Apr-12 15:33N 34°09' E 135°09'0 0.1
2015-Apr-12 14:33N 34°09' E 135°09'0 0.1
2015-Apr-12 13:33N 34°09' E 135°09'0 0.1
2015-Apr-12 12:33N 34°09' E 135°09'0 0.0
2015-Apr-12 11:33N 34°09' E 135°09'0 0.0
2015-Apr-12 10:33N 34°09' E 135°09'0 0.0
2015-Apr-12 09:33N 34°09' E 135°09'0 0.0
2015-Apr-12 08:33N 34°09' E 135°09'0 0.0
2015-Apr-12 07:33N 34°09' E 135°09'5 5.5
2015-Apr-12 06:33N 34°12' E 135°04'1010.3
2015-Apr-12 05:32N 34°22' E 135°01'1312.7
2015-Apr-12 04:33N 34°30' E 135°13'10 9.7
2015-Apr-12 03:33N 34°33' E 135°25'  

Dump ship's entire track history